Time;durP1;ratioP1;P1;durP2;ratioP2;P2;SDS_P1;SDS_P2;PMS_P1;PMS_P2;Temp;Humidity;BMP_temperature;BMP_pressure;BME280_temperature;BME280_humidity;BME280_pressure;Samples;Min_cycle;Max_cycle;Signal;HPM_P1;HPM_P2
2022/11/30 00:00:32;;;;;;;3.33;3.23;;;18.00;72.50;;;;;;5119053;27;43464;-75
2022/11/30 00:03:00;;;;;;;3.37;3.27;;;18.00;72.40;;;;;;5106795;27;43855;-74
2022/11/30 00:05:29;;;;;;;3.60;3.50;;;18.00;72.40;;;;;;5122221;27;43400;-73
2022/11/30 00:07:57;;;;;;;3.23;3.13;;;18.00;72.40;;;;;;5118059;27;43490;-73
2022/11/30 00:10:25;;;;;;;3.43;3.33;;;18.00;72.50;;;;;;5116715;27;43540;-74
2022/11/30 00:12:54;;;;;;;3.50;3.40;;;17.90;72.70;;;;;;5125387;27;43667;-75
2022/11/30 00:15:23;;;;;;;3.50;3.40;;;18.00;72.80;;;;;;5120432;27;43521;-74
2022/11/30 00:17:55;;;;;;;3.50;3.40;;;18.10;72.50;;;;;;5117626;27;43762;-74
2022/11/30 00:20:23;;;;;;;3.60;3.50;;;18.20;72.20;;;;;;5121211;27;43990;-76
2022/11/30 00:22:51;;;;;;;3.60;3.50;;;18.20;71.90;;;;;;5116342;27;45543;-76
2022/11/30 00:25:19;;;;;;;3.73;3.63;;;18.20;72.00;;;;;;5119083;27;44756;-74
2022/11/30 00:27:47;;;;;;;3.60;3.50;;;18.20;72.20;;;;;;5121065;27;43374;-75
2022/11/30 00:30:15;;;;;;;4.00;3.80;;;18.10;72.80;;;;;;5115443;27;43584;-73
2022/11/30 00:32:45;;;;;;;3.97;3.77;;;18.10;72.10;;;;;;5122854;27;43836;-72
2022/11/30 00:35:12;;;;;;;3.57;3.47;;;18.10;72.10;;;;;;5121147;27;43467;-74
2022/11/30 00:37:40;;;;;;;3.47;3.37;;;18.00;72.10;;;;;;5117498;27;43419;-74
2022/11/30 00:40:09;;;;;;;3.53;3.43;;;18.00;72.30;;;;;;5119518;27;43451;-72
2022/11/30 00:42:37;;;;;;;3.30;3.20;;;18.00;72.60;;;;;;5120527;27;43884;-77
2022/11/30 00:45:06;;;;;;;3.90;3.80;;;18.00;72.50;;;;;;5112994;27;45113;-75
2022/11/30 00:47:35;;;;;;;3.30;3.20;;;18.00;72.40;;;;;;5125718;27;43349;-75
2022/11/30 00:50:07;;;;;;;3.67;3.57;;;18.00;72.50;;;;;;5115238;27;43587;-76
2022/11/30 00:52:35;;;;;;;3.57;3.43;;;18.00;72.50;;;;;;5120291;27;44121;-73
2022/11/30 00:55:04;;;;;;;3.47;3.37;;;18.00;72.70;;;;;;5120566;27;45039;-73
2022/11/30 00:57:32;;;;;;;3.53;3.43;;;17.90;72.80;;;;;;5121702;27;43447;-75
2022/11/30 01:00:00;;;;;;;3.53;3.40;;;18.00;72.80;;;;;;5117844;27;43961;-74
2022/11/30 01:02:27;;;;;;;3.40;3.30;;;18.10;72.50;;;;;;5122754;27;45339;-75
2022/11/30 01:04:55;;;;;;;3.70;3.60;;;18.20;72.10;;;;;;5120447;27;43504;-75
2022/11/30 01:07:25;;;;;;;3.70;3.60;;;18.20;71.90;;;;;;5117333;27;43438;-73
2022/11/30 01:09:53;;;;;;;3.80;3.70;;;18.20;71.90;;;;;;5122027;27;43478;-74
2022/11/30 01:12:21;;;;;;;3.57;3.47;;;18.10;72.20;;;;;;5110649;27;43898;-76
2022/11/30 01:14:48;;;;;;;3.60;3.50;;;18.10;72.10;;;;;;5121655;27;44375;-75
2022/11/30 01:17:16;;;;;;;3.60;3.50;;;18.10;72.00;;;;;;5121217;27;43906;-74
2022/11/30 01:19:44;;;;;;;3.50;3.40;;;18.10;72.10;;;;;;5122915;27;43436;-75
2022/11/30 01:22:12;;;;;;;3.30;3.20;;;18.00;72.10;;;;;;5121177;27;43684;-76
2022/11/30 01:24:41;;;;;;;3.93;3.73;;;18.00;72.30;;;;;;5126721;27;43497;-76
2022/11/30 01:27:09;;;;;;;3.87;3.77;;;18.00;72.60;;;;;;5115590;27;43485;-74
2022/11/30 01:29:38;;;;;;;3.60;3.50;;;18.00;72.40;;;;;;5125736;27;43574;-72
2022/11/30 01:32:06;;;;;;;3.77;3.53;;;18.00;72.40;;;;;;5122517;27;46058;-73
2022/11/30 01:34:34;;;;;;;3.50;3.40;;;18.00;72.50;;;;;;5126781;27;43424;-75
2022/11/30 01:37:02;;;;;;;3.60;3.50;;;18.00;72.50;;;;;;5117834;27;43911;-74
2022/11/30 01:39:30;;;;;;;4.00;3.90;;;17.90;72.50;;;;;;5122630;27;43422;-76
2022/11/30 01:41:59;;;;;;;4.10;4.00;;;17.90;72.70;;;;;;5121133;27;43905;-75
2022/11/30 01:44:54;;;;;;;3.70;3.60;;;17.90;72.50;;;;;;5119399;27;44045;-76
2022/11/30 01:47:25;;;;;;;3.67;3.57;;;17.90;72.50;;;;;;5045615;27;43438;-75
2022/11/30 01:49:55;;;;;;;3.87;3.67;;;17.90;72.50;;;;;;5126751;27;43877;-74
2022/11/30 01:52:26;;;;;;;3.60;3.50;;;17.90;73.30;;;;;;5116491;27;44340;-74
2022/11/30 01:54:54;;;;;;;3.77;3.67;;;17.90;72.70;;;;;;5112956;27;43844;-74
2022/11/30 01:57:26;;;;;;;3.70;3.60;;;17.90;72.90;;;;;;5121377;27;43413;-73
2022/11/30 01:59:54;;;;;;;3.90;3.80;;;18.00;72.70;;;;;;5125508;27;43394;-75
2022/11/30 02:02:41;;;;;;;3.60;3.50;;;18.10;72.20;;;;;;5117624;27;45645;-75
2022/11/30 02:05:09;;;;;;;3.67;3.57;;;18.20;71.80;;;;;;5124271;27;43452;-76
2022/11/30 02:07:38;;;;;;;4.00;3.80;;;18.20;71.70;;;;;;5121989;27;43543;-76
2022/11/30 02:10:07;;;;;;;3.70;3.60;;;18.20;71.90;;;;;;5121191;27;43928;-75
2022/11/30 02:12:39;;;;;;;4.10;3.90;;;18.20;72.00;;;;;;5126108;27;43604;-76
2022/11/30 02:15:09;;;;;;;4.30;4.20;;;18.20;71.90;;;;;;5125464;27;43401;-75
2022/11/30 02:17:42;;;;;;;3.40;3.30;;;18.10;71.90;;;;;;5116671;27;43671;-76
2022/11/30 02:20:34;;;;;;;3.73;3.63;;;18.10;72.00;;;;;;5111328;27;43821;-76
2022/11/30 02:23:39;;;;;;;3.37;3.27;;;18.00;72.00;;;;;;5119760;27;43901;-74
2022/11/30 02:26:16;;;;;;;3.47;3.37;;;18.00;72.40;;;;;;5111459;27;44392;-75
2022/11/30 02:28:58;;;;;;;4.00;3.80;;;18.00;72.20;;;;;;5123258;27;43484;-73
2022/11/30 02:31:28;;;;;;;3.60;3.50;;;18.00;72.20;;;;;;5123905;27;43497;-74
2022/11/30 02:33:57;;;;;;;3.73;3.63;;;18.00;72.30;;;;;;5119962;27;44882;-76
2022/11/30 02:36:25;;;;;;;3.53;3.43;;;18.00;72.40;;;;;;5123255;27;44071;-75
2022/11/30 02:38:53;;;;;;;3.73;3.63;;;17.90;72.40;;;;;;5125870;27;43424;-77
2022/11/30 02:41:21;;;;;;;4.10;3.90;;;18.00;72.70;;;;;;5121922;27;43414;-76
2022/11/30 02:43:48;;;;;;;3.67;3.57;;;18.00;72.50;;;;;;5117877;27;45690;-74
2022/11/30 02:46:20;;;;;;;3.87;3.77;;;18.00;72.50;;;;;;5124807;27;44593;-76
2022/11/30 02:48:50;;;;;;;3.93;3.83;;;17.90;72.40;;;;;;5122011;27;43549;-75
2022/11/30 02:51:18;;;;;;;3.93;3.83;;;17.90;72.50;;;;;;5113027;27;43427;-74
2022/11/30 02:53:46;;;;;;;3.70;3.60;;;17.90;72.70;;;;;;5124067;27;45567;-73
2022/11/30 02:56:14;;;;;;;4.00;3.90;;;17.90;72.80;;;;;;5121218;27;43465;-76
2022/11/30 02:58:42;;;;;;;3.80;3.70;;;18.10;72.70;;;;;;5123063;27;43652;-75
2022/11/30 03:01:10;;;;;;;4.03;3.93;;;18.10;72.20;;;;;;5125350;27;43440;-75
2022/11/30 03:03:40;;;;;;;3.90;3.80;;;18.20;71.80;;;;;;5122321;27;46113;-76
2022/11/30 03:06:08;;;;;;;4.27;4.07;;;18.20;71.50;;;;;;5116027;27;43416;-76
2022/11/30 03:08:36;;;;;;;3.77;3.67;;;18.20;71.60;;;;;;5121479;27;43439;-75
2022/11/30 03:11:04;;;;;;;4.00;3.90;;;18.20;71.90;;;;;;5127912;27;43952;-72
2022/11/30 03:13:32;;;;;;;4.33;4.13;;;18.20;71.80;;;;;;5120363;27;43999;-73
2022/11/30 03:16:05;;;;;;;3.87;3.77;;;18.10;71.70;;;;;;5116691;27;43474;-76
2022/11/30 03:18:33;;;;;;;3.73;3.63;;;18.10;71.80;;;;;;5103441;27;43446;-76
2022/11/30 03:21:05;;;;;;;4.10;3.97;;;18.10;72.00;;;;;;5128863;27;43500;-74
2022/11/30 03:23:34;;;;;;;4.23;4.07;;;18.00;72.10;;;;;;5113565;27;43843;-75
2022/11/30 03:26:02;;;;;;;3.70;3.60;;;18.00;72.40;;;;;;5125420;27;44557;-74
2022/11/30 03:28:30;;;;;;;3.80;3.70;;;18.00;72.20;;;;;;5127706;27;43374;-74
2022/11/30 03:30:58;;;;;;;3.80;3.70;;;18.00;72.30;;;;;;5118188;27;44045;-76
2022/11/30 03:33:26;;;;;;;4.07;3.87;;;18.00;72.30;;;;;;5110838;27;46467;-73
2022/11/30 03:36:00;;;;;;;3.80;3.70;;;17.90;72.30;;;;;;5115648;27;43499;-76
2022/11/30 03:38:29;;;;;;;3.80;3.70;;;17.90;72.50;;;;;;5121773;27;43551;-72
2022/11/30 03:41:01;;;;;;;3.70;3.60;;;17.90;72.70;;;;;;5119211;27;43512;-75
2022/11/30 03:43:29;;;;;;;3.90;3.80;;;17.90;72.40;;;;;;5125080;27;43589;-75
2022/11/30 03:45:57;;;;;;;3.57;3.47;;;17.90;72.50;;;;;;5121079;27;45133;-75
2022/11/30 03:48:25;;;;;;;3.80;3.70;;;17.90;72.50;;;;;;5112570;27;44141;-72
2022/11/30 03:50:53;;;;;;;4.23;4.13;;;17.90;72.50;;;;;;5110572;27;43466;-76
2022/11/30 03:53:22;;;;;;;4.10;3.90;;;17.90;72.60;;;;;;5117332;27;43915;-75
2022/11/30 03:55:53;;;;;;;4.53;4.33;;;17.90;72.90;;;;;;5121904;27;44734;-75
2022/11/30 03:58:21;;;;;;;3.87;3.77;;;18.00;72.70;;;;;;5120212;27;43451;-74
2022/11/30 04:00:49;;;;;;;4.13;4.03;;;18.10;72.20;;;;;;5120077;27;43423;-75
2022/11/30 04:03:17;;;;;;;4.57;4.37;;;18.20;71.90;;;;;;5121056;27;45845;-75
2022/11/30 04:05:46;;;;;;;3.83;3.73;;;18.20;71.70;;;;;;5122789;27;43422;-75
2022/11/30 04:08:14;;;;;;;4.50;4.30;;;18.10;71.80;;;;;;5117860;27;43983;-76
2022/11/30 04:10:42;;;;;;;4.10;3.97;;;18.10;71.90;;;;;;5116728;27;43354;-74
2022/11/30 04:13:11;;;;;;;4.50;4.30;;;18.10;71.80;;;;;;5117904;27;45680;-72
2022/11/30 04:15:39;;;;;;;4.20;4.10;;;18.10;71.90;;;;;;5114914;27;43469;-73
2022/11/30 04:18:07;;;;;;;3.70;3.60;;;18.10;72.00;;;;;;5118166;27;43885;-75
2022/11/30 04:20:35;;;;;;;3.97;3.87;;;18.10;72.20;;;;;;5114298;27;43477;-75
2022/11/30 04:23:08;;;;;;;4.30;4.20;;;18.00;72.30;;;;;;5115047;27;45780;-74
2022/11/30 04:25:37;;;;;;;4.37;4.27;;;18.00;72.40;;;;;;5120902;27;44423;-75
2022/11/30 04:28:05;;;;;;;4.20;4.00;;;18.00;72.30;;;;;;5123956;27;43934;-75
2022/11/30 04:30:35;;;;;;;4.90;4.60;;;18.00;72.40;;;;;;5115563;27;43356;-73
2022/11/30 04:33:03;;;;;;;4.90;4.60;;;17.90;72.30;;;;;;5116958;27;43986;-73
2022/11/30 04:35:31;;;;;;;5.00;4.60;;;17.90;72.30;;;;;;5120121;27;43528;-73
2022/11/30 04:37:59;;;;;;;5.40;4.90;;;17.90;72.60;;;;;;5120906;27;43436;-76
2022/11/30 04:40:27;;;;;;;5.40;4.87;;;17.90;72.70;;;;;;5116723;27;44149;-75
2022/11/30 04:42:55;;;;;;;5.80;5.30;;;18.00;72.40;;;;;;5117335;27;43819;-73
2022/11/30 04:45:23;;;;;;;6.23;5.57;;;18.10;72.10;;;;;;5117752;27;44390;-75
2022/11/30 04:47:52;;;;;;;6.53;5.87;;;18.10;71.70;;;;;;5119685;27;43930;-74
2022/11/30 04:50:20;;;;;;;9.63;6.60;;;18.10;71.70;;;;;;5116409;27;43426;-73
2022/11/30 04:52:48;;;;;;;7.57;6.10;;;18.10;71.90;;;;;;5118979;27;43863;-75
2022/11/30 04:55:18;;;;;;;10.03;7.07;;;18.10;72.20;;;;;;5117863;27;45067;-74
2022/11/30 04:57:46;;;;;;;9.90;6.70;;;18.10;71.90;;;;;;5115284;27;43350;-75
2022/11/30 05:00:15;;;;;;;9.10;6.13;;;18.10;71.90;;;;;;5111715;27;44026;-77
2022/11/30 05:02:43;;;;;;;8.43;6.27;;;18.00;72.00;;;;;;5113948;27;46146;-73
2022/11/30 05:05:20;;;;;;;12.37;7.17;;;18.00;72.10;;;;;;5111815;27;43464;-72
2022/11/30 05:07:49;;;;;;;10.97;7.63;;;18.00;72.40;;;;;;5120770;27;43885;-75
2022/11/30 05:10:17;;;;;;;9.93;7.17;;;18.00;72.40;;;;;;5115979;27;43333;-75
2022/11/30 05:12:45;;;;;;;13.13;7.73;;;17.90;72.20;;;;;;5117577;27;43839;-73
2022/11/30 05:15:13;;;;;;;10.37;7.03;;;18.00;72.40;;;;;;5104641;27;43984;-75
2022/11/30 05:17:41;;;;;;;8.07;6.43;;;17.90;72.30;;;;;;5109490;27;43516;-76
2022/11/30 05:20:10;;;;;;;12.53;7.53;;;17.90;72.40;;;;;;5108651;27;43496;-76
2022/11/30 05:22:39;;;;;;;13.83;7.70;;;17.90;72.70;;;;;;5107695;27;43909;-76
2022/11/30 05:25:08;;;;;;;11.70;7.27;;;18.00;72.60;;;;;;5109121;27;43966;-73
2022/11/30 05:27:36;;;;;;;11.77;8.37;;;18.10;72.30;;;;;;5105345;27;43559;-71
2022/11/30 05:30:04;;;;;;;12.60;7.27;;;18.10;71.90;;;;;;5109466;27;43595;-73
2022/11/30 05:32:32;;;;;;;9.93;7.47;;;18.10;71.60;;;;;;5106236;27;43592;-73
2022/11/30 05:35:01;;;;;;;9.90;7.00;;;18.10;71.70;;;;;;5109236;27;44764;-74
2022/11/30 05:37:29;;;;;;;12.47;8.17;;;18.10;72.10;;;;;;5108642;27;43408;-75
2022/11/30 05:39:58;;;;;;;11.43;7.60;;;18.10;72.10;;;;;;5106766;27;43461;-75
2022/11/30 05:42:27;;;;;;;9.87;7.63;;;18.10;71.90;;;;;;5109637;27;43974;-75
2022/11/30 05:44:54;;;;;;;9.90;7.17;;;18.10;72.70;;;;;;5110638;27;44196;-75
2022/11/30 05:47:22;;;;;;;9.53;7.00;;;18.10;72.10;;;;;;5122673;27;43413;-74
2022/11/30 05:49:50;;;;;;;9.90;7.30;;;18.00;72.20;;;;;;5123502;27;43898;-76
2022/11/30 05:52:18;;;;;;;10.97;7.40;;;17.90;72.40;;;;;;5113709;27;43599;-76
2022/11/30 05:54:46;;;;;;;11.87;7.73;;;17.90;72.40;;;;;;5106101;27;44060;-76
2022/11/30 05:57:16;;;;;;;8.57;6.67;;;17.90;72.30;;;;;;5123396;27;44043;-76
2022/11/30 05:59:44;;;;;;;7.83;5.90;;;17.90;72.30;;;;;;5114321;27;43608;-72
2022/11/30 06:02:12;;;;;;;10.10;7.13;;;17.90;72.40;;;;;;5124027;27;43586;-73
2022/11/30 06:04:40;;;;;;;10.57;7.50;;;17.90;72.50;;;;;;5121817;27;44592;-75
2022/11/30 06:07:10;;;;;;;10.50;7.07;;;17.90;72.80;;;;;;5122374;27;43416;-75
2022/11/30 06:09:38;;;;;;;9.37;7.00;;;17.90;72.70;;;;;;5112743;27;43469;-73
2022/11/30 06:12:06;;;;;;;10.90;7.57;;;18.00;72.40;;;;;;5122541;27;44152;-75
2022/11/30 06:14:36;;;;;;;8.70;6.97;;;18.10;72.10;;;;;;5123257;27;44360;-73
2022/11/30 06:17:04;;;;;;;9.90;6.90;;;18.10;71.90;;;;;;5124019;27;44042;-74
2022/11/30 06:19:31;;;;;;;7.47;6.70;;;18.10;71.90;;;;;;5124138;27;43884;-73
2022/11/30 06:21:59;;;;;;;10.33;7.50;;;18.00;72.10;;;;;;5119613;27;43811;-72
2022/11/30 06:24:27;;;;;;;9.17;7.03;;;18.10;72.20;;;;;;5123667;27;43548;-74
2022/11/30 06:26:55;;;;;;;7.53;6.30;;;18.10;72.00;;;;;;5123394;27;44083;-76
2022/11/30 06:29:23;;;;;;;10.30;7.17;;;18.00;71.90;;;;;;5114221;27;43668;-72
2022/11/30 06:31:53;;;;;;;8.10;6.80;;;18.00;72.00;;;;;;5126667;27;45566;-75
2022/11/30 06:34:21;;;;;;;7.20;6.50;;;18.00;72.20;;;;;;5124753;27;43407;-75
2022/11/30 06:36:49;;;;;;;10.47;7.20;;;17.90;72.50;;;;;;5117447;27;43756;-74
2022/11/30 06:39:17;;;;;;;7.27;5.90;;;17.90;72.30;;;;;;5121630;27;43459;-73
2022/11/30 06:42:05;;;;;;;7.50;6.30;;;18.00;72.40;;;;;;5123239;27;43614;-73
2022/11/30 06:44:33;;;;;;;8.07;6.97;;;17.90;72.20;;;;;;5128975;27;43432;-72
2022/11/30 06:47:02;;;;;;;6.60;5.97;;;17.90;72.30;;;;;;5122120;27;43433;-70
2022/11/30 06:49:30;;;;;;;7.70;6.30;;;17.90;72.40;;;;;;5121845;27;43421;-73
2022/11/30 06:51:58;;;;;;;8.67;6.53;;;17.90;72.70;;;;;;5106806;27;43846;-73
2022/11/30 06:54:26;;;;;;;8.33;6.53;;;18.00;72.60;;;;;;5121368;27;43888;-72
2022/11/30 06:56:55;;;;;;;8.83;6.70;;;18.00;72.20;;;;;;5127442;27;44025;-76
2022/11/30 06:59:23;;;;;;;7.20;6.37;;;18.10;72.00;;;;;;5120336;27;43445;-74
2022/11/30 07:01:51;;;;;;;6.73;6.03;;;18.10;71.80;;;;;;5120215;27;43854;-76
2022/11/30 07:04:20;;;;;;;6.93;6.30;;;18.10;71.90;;;;;;5117070;27;44673;-74
2022/11/30 07:06:48;;;;;;;8.87;6.60;;;18.00;72.10;;;;;;5118355;27;43403;-76
2022/11/30 07:09:16;;;;;;;7.10;6.50;;;18.00;72.10;;;;;;5113805;27;43462;-72
2022/11/30 07:11:44;;;;;;;6.53;5.93;;;18.00;72.00;;;;;;5124357;27;43916;-73
2022/11/30 07:14:12;;;;;;;6.47;5.87;;;18.00;72.00;;;;;;5124238;27;44256;-76
2022/11/30 07:16:40;;;;;;;6.60;6.00;;;18.00;72.20;;;;;;5118230;27;43405;-75
2022/11/30 07:19:08;;;;;;;6.50;5.90;;;17.90;72.20;;;;;;5116777;27;43433;-75
2022/11/30 07:21:38;;;;;;;7.03;6.13;;;17.90;72.50;;;;;;5116596;27;43658;-74
2022/11/30 07:26:51;;;;;;;6.70;6.10;;;18.10;72.30;;;;;;5121566;27;43824;-76
2022/11/30 07:29:19;;;;;;;7.00;6.03;;;18.10;72.00;;;;;;5122900;27;43591;-74
2022/11/30 07:31:50;;;;;;;6.57;5.97;;;18.10;72.00;;;;;;5113847;27;43595;-77
2022/11/30 07:34:18;;;;;;;7.20;6.60;;;18.10;72.10;;;;;;5116600;27;43520;-73
2022/11/30 07:36:48;;;;;;;5.77;5.37;;;18.00;72.30;;;;;;5122301;27;43399;-74
2022/11/30 07:39:15;;;;;;;6.57;5.90;;;18.00;72.20;;;;;;5116066;27;43875;-75
2022/11/30 07:41:43;;;;;;;6.63;6.03;;;18.00;72.20;;;;;;5122053;27;43918;-76
2022/11/30 07:44:11;;;;;;;6.30;5.80;;;18.00;72.10;;;;;;5121239;27;43443;-74
2022/11/30 07:46:39;;;;;;;7.37;6.03;;;18.00;72.20;;;;;;5110436;27;43480;-75
2022/11/30 07:49:08;;;;;;;6.80;6.20;;;17.90;72.20;;;;;;5119854;27;43541;-72
2022/11/30 07:51:36;;;;;;;6.87;6.10;;;17.90;72.50;;;;;;5112815;27;44902;-75
2022/11/30 07:54:06;;;;;;;6.73;6.07;;;18.00;72.40;;;;;;5115628;27;44706;-73
2022/11/30 07:56:34;;;;;;;6.00;5.50;;;17.90;72.20;;;;;;5113799;27;43478;-73
2022/11/30 07:59:02;;;;;;;6.10;5.63;;;18.00;72.30;;;;;;5121411;27;43497;-74
2022/11/30 08:01:31;;;;;;;5.87;5.37;;;17.90;72.20;;;;;;5111441;27;43610;-76
2022/11/30 08:03:59;;;;;;;6.30;5.80;;;17.90;72.30;;;;;;5117694;27;43540;-76
2022/11/30 08:06:28;;;;;;;6.57;6.00;;;17.90;72.50;;;;;;5120635;27;43427;-73
2022/11/30 08:08:57;;;;;;;6.40;5.80;;;17.90;72.50;;;;;;5121376;27;43951;-75
2022/11/30 08:11:29;;;;;;;6.97;6.27;;;18.00;72.20;;;;;;5110751;27;45078;-73
2022/11/30 08:13:57;;;;;;;6.97;6.27;;;18.20;71.90;;;;;;5114889;27;44655;-74
2022/11/30 08:16:26;;;;;;;6.70;6.10;;;18.20;71.50;;;;;;5115502;27;43413;-73
2022/11/30 08:18:55;;;;;;;6.53;5.93;;;18.20;71.40;;;;;;5109203;27;43530;-72
2022/11/30 08:21:23;;;;;;;6.97;6.23;;;18.20;71.60;;;;;;5119281;27;43842;-74
2022/11/30 08:23:52;;;;;;;6.50;6.00;;;18.20;71.70;;;;;;5119315;27;43394;-75
2022/11/30 08:26:21;;;;;;;6.20;5.60;;;18.20;71.60;;;;;;5118933;27;43918;-73
2022/11/30 08:28:51;;;;;;;6.67;6.03;;;18.10;71.60;;;;;;5106199;27;44026;-75
2022/11/30 08:31:20;;;;;;;5.60;5.20;;;18.10;71.70;;;;;;5119544;27;43962;-72
2022/11/30 08:33:49;;;;;;;6.53;5.93;;;18.00;71.80;;;;;;5121472;27;43489;-75
2022/11/30 08:36:18;;;;;;;6.67;6.07;;;18.00;72.00;;;;;;5112698;27;43762;-74
2022/11/30 08:38:46;;;;;;;6.47;5.97;;;18.00;72.20;;;;;;5117294;27;43434;-75
2022/11/30 08:41:15;;;;;;;6.00;5.50;;;18.00;72.10;;;;;;5118450;27;45430;-76
2022/11/30 08:43:43;;;;;;;6.03;5.53;;;18.00;72.20;;;;;;5116669;27;43470;-72
2022/11/30 08:46:13;;;;;;;6.67;6.07;;;17.90;72.20;;;;;;5122939;27;43425;-76
2022/11/30 08:49:01;;;;;;;6.10;5.70;;;17.90;72.20;;;;;;5120184;27;43528;-71
2022/11/30 08:51:47;;;;;;;6.30;5.80;;;17.90;72.50;;;;;;5114054;27;46066;-76
2022/11/30 08:54:35;;;;;;;5.90;5.50;;;17.90;72.40;;;;;;5122404;27;44517;-75
2022/11/30 08:57:03;;;;;;;5.87;5.40;;;17.90;72.30;;;;;;5110228;27;43416;-72
2022/11/30 08:59:31;;;;;;;6.30;5.90;;;17.90;72.30;;;;;;5113396;27;43475;-73
2022/11/30 09:02:00;;;;;;;5.70;5.40;;;17.90;72.30;;;;;;5115716;27;43602;-76
2022/11/30 09:04:28;;;;;;;6.60;6.17;;;17.90;72.40;;;;;;5118178;27;43433;-74
2022/11/30 09:06:57;;;;;;;6.13;5.73;;;17.90;72.70;;;;;;5115563;27;43485;-75
2022/11/30 09:09:26;;;;;;;6.50;6.00;;;17.90;72.50;;;;;;5120168;27;43566;-72
2022/11/30 09:11:54;;;;;;;6.67;5.80;;;18.10;72.30;;;;;;5108644;27;45580;-73
2022/11/30 09:14:22;;;;;;;6.53;6.03;;;18.10;71.90;;;;;;5119423;27;43408;-73
2022/11/30 09:16:50;;;;;;;6.20;5.70;;;18.10;71.60;;;;;;5118237;27;43575;-73
2022/11/30 09:19:19;;;;;;;5.73;5.33;;;18.20;71.70;;;;;;5121184;27;43425;-76
2022/11/30 09:21:47;;;;;;;5.73;5.33;;;18.10;72.00;;;;;;5122869;27;43927;-75
2022/11/30 09:24:19;;;;;;;5.70;5.40;;;18.10;71.90;;;;;;5116721;27;43528;-73
2022/11/30 09:26:47;;;;;;;5.77;5.27;;;18.10;71.90;;;;;;5124505;27;43453;-76
2022/11/30 09:29:15;;;;;;;5.30;5.00;;;18.10;72.00;;;;;;5118220;27;43732;-74
2022/11/30 09:31:43;;;;;;;5.97;5.57;;;18.00;72.00;;;;;;5115009;27;43613;-72
2022/11/30 09:34:11;;;;;;;6.10;5.57;;;18.00;72.20;;;;;;5120400;27;43523;-73
2022/11/30 09:36:40;;;;;;;5.40;5.10;;;17.90;72.40;;;;;;5120350;27;43425;-75
2022/11/30 09:39:11;;;;;;;5.73;5.33;;;17.90;72.30;;;;;;5124532;27;43476;-76
2022/11/30 09:42:02;;;;;;;5.13;4.83;;;17.90;72.30;;;;;;5116433;27;43854;-74
2022/11/30 09:44:32;;;;;;;5.40;5.10;;;17.90;72.30;;;;;;5112156;27;43520;-74
2022/11/30 09:47:04;;;;;;;5.13;4.83;;;17.90;72.40;;;;;;5125488;27;43406;-74
2022/11/30 09:49:33;;;;;;;5.47;5.17;;;17.90;72.50;;;;;;5117103;27;44026;-73
2022/11/30 09:52:04;;;;;;;5.53;5.10;;;17.90;72.70;;;;;;5113103;27;44136;-75
2022/11/30 09:54:36;;;;;;;5.67;5.17;;;17.90;72.60;;;;;;5118902;27;43948;-75
2022/11/30 09:57:04;;;;;;;5.73;5.30;;;18.00;72.30;;;;;;5118587;27;43366;-76
2022/11/30 09:59:32;;;;;;;5.03;4.73;;;18.10;71.90;;;;;;5118914;27;43519;-75
2022/11/30 10:02:00;;;;;;;5.20;4.90;;;18.10;71.90;;;;;;5123464;27;45270;-71
2022/11/30 10:04:29;;;;;;;5.10;4.80;;;18.10;71.90;;;;;;5118904;27;44327;-76
2022/11/30 10:07:05;;;;;;;5.20;4.90;;;18.00;72.00;;;;;;5129149;27;43498;-75
2022/11/30 10:09:39;;;;;;;5.07;4.67;;;18.10;72.00;;;;;;5105933;27;43480;-76
2022/11/30 10:12:09;;;;;;;5.00;4.70;;;18.10;72.00;;;;;;5113455;27;43855;-76
2022/11/30 10:15:04;;;;;;;5.03;4.73;;;18.00;72.00;;;;;;5123181;27;44245;-76
2022/11/30 10:17:37;;;;;;;5.07;4.77;;;18.00;72.00;;;;;;5109439;27;43410;-73
2022/11/30 10:20:28;;;;;;;5.07;4.77;;;18.00;72.20;;;;;;5122643;27;43575;-76
2022/11/30 10:23:07;;;;;;;5.00;4.73;;;17.90;72.30;;;;;;5110013;27;46070;-73
2022/11/30 10:25:40;;;;;;;4.60;4.40;;;17.90;72.20;;;;;;5121073;27;43377;-75
2022/11/30 10:28:12;;;;;;;4.63;4.43;;;18.00;72.40;;;;;;5119368;27;43461;-76
2022/11/30 10:31:00;;;;;;;4.83;4.53;;;17.90;72.30;;;;;;5122895;27;43514;-74
2022/11/30 10:33:32;;;;;;;4.67;4.47;;;17.90;72.40;;;;;;5117661;27;45384;-73
2022/11/30 10:36:08;;;;;;;4.80;4.50;;;17.90;72.60;;;;;;5120309;27;43395;-76
2022/11/30 10:38:40;;;;;;;4.70;4.40;;;17.90;72.50;;;;;;5122830;27;43428;-73
2022/11/30 10:41:10;;;;;;;4.63;4.43;;;18.00;72.30;;;;;;5121676;27;43453;-76
2022/11/30 10:43:40;;;;;;;4.37;4.17;;;18.10;71.90;;;;;;5118026;27;43609;-75
2022/11/30 10:46:08;;;;;;;4.93;4.53;;;18.10;71.70;;;;;;5119468;27;44663;-73
2022/11/30 10:48:45;;;;;;;4.70;4.40;;;18.10;71.80;;;;;;5125989;27;43977;-75
2022/11/30 10:51:13;;;;;;;4.87;4.60;;;18.00;72.00;;;;;;5105726;27;43470;-75
2022/11/30 10:53:42;;;;;;;4.23;4.03;;;18.00;72.00;;;;;;5115252;27;43946;-73
2022/11/30 10:56:11;;;;;;;4.13;3.97;;;18.10;72.00;;;;;;5128268;27;43393;-75
2022/11/30 10:58:40;;;;;;;4.20;4.00;;;18.00;72.00;;;;;;5111977;27;43922;-76
2022/11/30 11:01:10;;;;;;;4.13;3.93;;;18.00;72.00;;;;;;5126167;27;43416;-74
2022/11/30 11:03:38;;;;;;;4.13;3.93;;;18.00;72.20;;;;;;5121549;27;43956;-76
2022/11/30 11:06:11;;;;;;;4.17;3.97;;;17.90;72.40;;;;;;5113277;27;44150;-75
2022/11/30 11:08:39;;;;;;;3.80;3.70;;;17.90;72.20;;;;;;5119183;27;43478;-74
2022/11/30 11:11:25;;;;;;;3.93;3.73;;;17.90;72.20;;;;;;5117335;27;43568;-76
2022/11/30 11:13:53;;;;;;;4.30;4.10;;;17.90;72.20;;;;;;5113974;27;43591;-75
2022/11/30 11:16:21;;;;;;;4.27;4.07;;;17.90;72.30;;;;;;5126512;27;43505;-76
2022/11/30 11:18:53;;;;;;;4.00;3.90;;;17.90;72.40;;;;;;5109869;27;43958;-75
2022/11/30 11:21:21;;;;;;;4.00;3.80;;;17.90;72.70;;;;;;5111086;27;43447;-74
2022/11/30 11:23:51;;;;;;;4.13;4.00;;;17.90;72.50;;;;;;5124035;27;43956;-76
2022/11/30 11:26:21;;;;;;;3.87;3.67;;;18.10;72.30;;;;;;5121128;27;44089;-76
2022/11/30 11:28:50;;;;;;;4.23;4.03;;;18.10;71.90;;;;;;5125183;27;43410;-74
2022/11/30 11:31:19;;;;;;;3.70;3.60;;;18.10;71.80;;;;;;5124189;27;43456;-76
2022/11/30 11:33:50;;;;;;;3.80;3.70;;;18.10;71.90;;;;;;5113428;27;45326;-75
2022/11/30 11:36:25;;;;;;;4.07;3.83;;;18.10;72.20;;;;;;5115984;27;44887;-71
2022/11/30 11:38:53;;;;;;;4.03;3.93;;;18.00;72.00;;;;;;5115441;27;43473;-76
2022/11/30 11:41:24;;;;;;;3.53;3.43;;;18.00;72.00;;;;;;5120076;27;44457;-76
2022/11/30 11:44:01;;;;;;;3.77;3.57;;;18.00;72.00;;;;;;5109824;27;43921;-73
2022/11/30 11:46:29;;;;;;;3.57;3.37;;;18.00;72.20;;;;;;5107960;27;44624;-75
2022/11/30 11:48:58;;;;;;;3.70;3.50;;;17.90;72.20;;;;;;5109415;27;43472;-72
2022/11/30 11:51:30;;;;;;;3.60;3.50;;;17.90;72.50;;;;;;5097742;27;43490;-76
2022/11/30 11:53:58;;;;;;;3.93;3.63;;;17.90;72.20;;;;;;5109242;27;45801;-75
2022/11/30 11:56:30;;;;;;;3.37;3.20;;;17.90;72.20;;;;;;5122501;27;43515;-75
2022/11/30 11:58:59;;;;;;;3.20;3.10;;;17.90;72.30;;;;;;5127421;27;43415;-76
2022/11/30 12:01:43;;;;;;;3.50;3.40;;;17.90;72.30;;;;;;5117257;27;43444;-74
2022/11/30 12:04:31;;;;;;;3.30;3.17;;;17.90;72.50;;;;;;5118262;27;43606;-76
2022/11/30 12:06:59;;;;;;;3.87;3.67;;;17.90;72.80;;;;;;5126102;27;43993;-75
2022/11/30 12:09:30;;;;;;;3.47;3.37;;;17.90;72.50;;;;;;5114027;27;43449;-73
2022/11/30 12:11:59;;;;;;;3.50;3.40;;;18.10;72.20;;;;;;5118855;27;43509;-75
2022/11/30 12:14:27;;;;;;;3.43;3.33;;;18.20;71.80;;;;;;5100909;27;43598;-76
2022/11/30 12:17:08;;;;;;;3.47;3.37;;;18.20;71.50;;;;;;5113966;27;43351;-76
2022/11/30 12:19:39;;;;;;;3.20;3.10;;;18.20;71.70;;;;;;5103352;27;44028;-77
2022/11/30 12:22:15;;;;;;;3.27;3.17;;;18.20;71.80;;;;;;5119516;27;43398;-76
2022/11/30 12:24:54;;;;;;;3.20;3.10;;;18.10;71.60;;;;;;5123761;27;44008;-75
2022/11/30 12:27:29;;;;;;;3.37;3.27;;;18.10;71.70;;;;;;5123698;27;43455;-72
2022/11/30 12:30:02;;;;;;;3.13;3.03;;;18.10;71.90;;;;;;5110514;27;43412;-75
2022/11/30 12:32:34;;;;;;;3.40;3.30;;;18.10;72.10;;;;;;5117932;27;43455;-76
2022/11/30 12:35:13;;;;;;;3.13;3.03;;;18.00;72.20;;;;;;5114614;27;43879;-74
2022/11/30 12:37:48;;;;;;;3.17;3.07;;;18.00;72.30;;;;;;5116121;27;43402;-74
2022/11/30 12:40:23;;;;;;;3.00;2.90;;;18.00;72.10;;;;;;5118843;27;43504;-75
2022/11/30 12:42:55;;;;;;;2.90;2.80;;;18.00;72.20;;;;;;5114781;27;43982;-75
2022/11/30 12:45:25;;;;;;;2.80;2.70;;;17.90;72.20;;;;;;5120227;27;43954;-76
2022/11/30 12:47:56;;;;;;;3.40;3.30;;;17.90;72.20;;;;;;5115330;27;44959;-74
2022/11/30 12:50:53;;;;;;;3.00;2.90;;;17.90;72.50;;;;;;5106581;27;43405;-75
2022/11/30 12:53:23;;;;;;;3.43;3.33;;;18.00;72.50;;;;;;5115248;27;43509;-76
2022/11/30 12:56:00;;;;;;;2.93;2.83;;;18.10;72.20;;;;;;5117392;27;43825;-76
2022/11/30 12:58:33;;;;;;;3.13;3.03;;;18.10;71.70;;;;;;5112623;27;44211;-76
2022/11/30 13:01:09;;;;;;;2.90;2.80;;;18.10;71.70;;;;;;5120116;27;43426;-73
2022/11/30 13:03:51;;;;;;;2.87;2.77;;;18.10;71.80;;;;;;5119973;27;43624;-71